sensor_id;sensor_type;location;lat;lon;timestamp;pressure;altitude;pressure_sealevel;temperature;humidity
79269;BME280;68714;48.586;7.772;2023-04-09T00:01:08;100537.53;;;9.26;56.70
79269;BME280;68714;48.586;7.772;2023-04-09T00:03:35;100537.56;;;9.24;56.64
79269;BME280;68714;48.586;7.772;2023-04-09T00:06:01;100528.81;;;9.24;56.83
79269;BME280;68714;48.586;7.772;2023-04-09T00:08:27;100529.72;;;9.23;56.73
79269;BME280;68714;48.586;7.772;2023-04-09T00:10:52;100532.38;;;9.21;56.86
79269;BME280;68714;48.586;7.772;2023-04-09T00:13:18;100528.94;;;9.19;56.85
79269;BME280;68714;48.586;7.772;2023-04-09T00:15:45;100527.28;;;9.15;56.94
79269;BME280;68714;48.586;7.772;2023-04-09T00:18:11;100525.50;;;9.16;56.88
79269;BME280;68714;48.586;7.772;2023-04-09T00:20:37;100525.63;;;9.09;56.91
79269;BME280;68714;48.586;7.772;2023-04-09T00:23:02;100526.56;;;9.08;57.26
79269;BME280;68714;48.586;7.772;2023-04-09T00:25:27;100517.84;;;9.05;57.20
79269;BME280;68714;48.586;7.772;2023-04-09T00:27:56;100523.25;;;8.99;57.18
79269;BME280;68714;48.586;7.772;2023-04-09T00:30:22;100527.75;;;8.95;57.23
79269;BME280;68714;48.586;7.772;2023-04-09T00:32:48;100527.78;;;8.93;57.18
79269;BME280;68714;48.586;7.772;2023-04-09T00:35:13;100526.94;;;8.93;57.20
79269;BME280;68714;48.586;7.772;2023-04-09T00:37:40;100523.41;;;8.92;57.36
79269;BME280;68714;48.586;7.772;2023-04-09T00:40:06;100515.63;;;8.88;57.69
79269;BME280;68714;48.586;7.772;2023-04-09T00:42:35;100526.19;;;8.86;57.49
79269;BME280;68714;48.586;7.772;2023-04-09T00:45:02;100520.09;;;8.84;57.51
79269;BME280;68714;48.586;7.772;2023-04-09T00:47:28;100521.00;;;8.83;57.39
79269;BME280;68714;48.586;7.772;2023-04-09T00:49:55;100522.81;;;8.81;57.56
79269;BME280;68714;48.586;7.772;2023-04-09T00:52:20;100522.81;;;8.81;57.42
79269;BME280;68714;48.586;7.772;2023-04-09T00:54:47;100523.69;;;8.80;57.88
79269;BME280;68714;48.586;7.772;2023-04-09T00:57:14;100522.88;;;8.78;57.95
79269;BME280;68714;48.586;7.772;2023-04-09T00:59:40;100531.69;;;8.75;58.10
79269;BME280;68714;48.586;7.772;2023-04-09T01:02:05;100528.22;;;8.75;57.99
79269;BME280;68714;48.586;7.772;2023-04-09T01:04:31;100531.84;;;8.69;57.99
79269;BME280;68714;48.586;7.772;2023-04-09T01:07:14;100533.75;;;8.63;58.15
79269;BME280;68714;48.586;7.772;2023-04-09T01:09:50;100529.38;;;8.62;58.47
79269;BME280;68714;48.586;7.772;2023-04-09T01:12:38;100527.72;;;8.59;58.93
79269;BME280;68714;48.586;7.772;2023-04-09T01:15:10;100535.59;;;8.59;58.24
79269;BME280;68714;48.586;7.772;2023-04-09T01:17:45;100534.06;;;8.49;60.31
79269;BME280;68714;48.586;7.772;2023-04-09T01:20:19;100526.97;;;8.52;58.23
79269;BME280;68714;48.586;7.772;2023-04-09T01:23:18;100526.06;;;8.53;58.58
79269;BME280;68714;48.586;7.772;2023-04-09T01:28:44;100532.22;;;8.52;58.36
79269;BME280;68714;48.586;7.772;2023-04-09T01:31:13;100525.22;;;8.51;58.60
79269;BME280;68714;48.586;7.772;2023-04-09T01:33:43;100528.69;;;8.53;58.47
79269;BME280;68714;48.586;7.772;2023-04-09T01:36:09;100520.81;;;8.53;58.51
79269;BME280;68714;48.586;7.772;2023-04-09T01:38:36;100523.34;;;8.58;58.56
79269;BME280;68714;48.586;7.772;2023-04-09T01:41:05;100522.38;;;8.62;58.50
79269;BME280;68714;48.586;7.772;2023-04-09T01:43:32;100530.28;;;8.62;58.55
79269;BME280;68714;48.586;7.772;2023-04-09T01:45:59;100530.31;;;8.61;58.63
79269;BME280;68714;48.586;7.772;2023-04-09T01:48:26;100527.66;;;8.61;58.70
79269;BME280;68714;48.586;7.772;2023-04-09T01:50:52;100528.56;;;8.60;58.57
79269;BME280;68714;48.586;7.772;2023-04-09T01:53:18;100528.53;;;8.61;58.33
79269;BME280;68714;48.586;7.772;2023-04-09T01:55:43;100525.94;;;8.60;58.54
79269;BME280;68714;48.586;7.772;2023-04-09T01:58:09;100527.72;;;8.59;58.58
79269;BME280;68714;48.586;7.772;2023-04-09T02:00:38;100520.75;;;8.56;58.80
79269;BME280;68714;48.586;7.772;2023-04-09T02:03:22;100519.91;;;8.53;58.88
79269;BME280;68714;48.586;7.772;2023-04-09T02:05:57;100520.84;;;8.52;59.02
79269;BME280;68714;48.586;7.772;2023-04-09T02:08:27;100525.22;;;8.51;58.99
79269;BME280;68714;48.586;7.772;2023-04-09T02:10:55;100529.75;;;8.43;60.78
79269;BME280;68714;48.586;7.772;2023-04-09T02:13:22;100534.94;;;8.48;58.94
79269;BME280;68714;48.586;7.772;2023-04-09T02:15:50;100535.78;;;8.50;58.96
79269;BME280;68714;48.586;7.772;2023-04-09T02:18:27;100530.50;;;8.50;58.98
79269;BME280;68714;48.586;7.772;2023-04-09T02:20:54;100525.25;;;8.50;59.22
79269;BME280;68714;48.586;7.772;2023-04-09T02:23:19;100529.72;;;8.46;59.03
79269;BME280;68714;48.586;7.772;2023-04-09T02:25:45;100533.25;;;8.45;59.06
79269;BME280;68714;48.586;7.772;2023-04-09T02:28:10;100537.72;;;8.40;59.25
79269;BME280;68714;48.586;7.772;2023-04-09T02:30:36;100534.28;;;8.36;59.04
79269;BME280;68714;48.586;7.772;2023-04-09T02:33:01;100530.84;;;8.33;59.04
79269;BME280;68714;48.586;7.772;2023-04-09T02:35:27;100529.25;;;8.26;59.04
79269;BME280;68714;48.586;7.772;2023-04-09T02:37:52;100518.81;;;8.23;59.38
79269;BME280;68714;48.586;7.772;2023-04-09T02:40:17;100528.53;;;8.17;59.49
79269;BME280;68714;48.586;7.772;2023-04-09T02:42:43;100522.50;;;8.12;59.48
79269;BME280;68714;48.586;7.772;2023-04-09T02:45:08;100524.34;;;8.09;59.75
79269;BME280;68714;48.586;7.772;2023-04-09T02:47:34;100531.38;;;8.07;59.77
79269;BME280;68714;48.586;7.772;2023-04-09T02:49:59;100531.44;;;8.03;59.85
79269;BME280;68714;48.586;7.772;2023-04-09T02:52:25;100528.06;;;7.97;59.79
79269;BME280;68714;48.586;7.772;2023-04-09T02:54:53;100522.88;;;7.94;59.76
79269;BME280;68714;48.586;7.772;2023-04-09T02:57:19;100523.81;;;7.90;60.09
79269;BME280;68714;48.586;7.772;2023-04-09T02:59:45;100520.38;;;7.88;60.05
79269;BME280;68714;48.586;7.772;2023-04-09T03:02:10;100523.06;;;7.84;60.21
79269;BME280;68714;48.586;7.772;2023-04-09T03:04:37;100522.22;;;7.81;60.15
79269;BME280;68714;48.586;7.772;2023-04-09T03:07:02;100524.06;;;7.77;60.39
79269;BME280;68714;48.586;7.772;2023-04-09T03:09:28;100520.63;;;7.74;60.32
79269;BME280;68714;48.586;7.772;2023-04-09T03:11:54;100515.47;;;7.69;60.30
79269;BME280;68714;48.586;7.772;2023-04-09T03:14:21;100515.53;;;7.66;60.64
79269;BME280;68714;48.586;7.772;2023-04-09T03:16:47;100513.84;;;7.62;60.68
79269;BME280;68714;48.586;7.772;2023-04-09T03:19:12;100515.75;;;7.54;61.03
79269;BME280;68714;48.586;7.772;2023-04-09T03:21:38;100516.66;;;7.51;61.03
79269;BME280;68714;48.586;7.772;2023-04-09T03:24:03;100515.84;;;7.49;60.88
79269;BME280;68714;48.586;7.772;2023-04-09T03:26:29;100521.91;;;7.51;61.09
79269;BME280;68714;48.586;7.772;2023-04-09T03:29:02;100516.63;;;7.53;60.79
79269;BME280;68714;48.586;7.772;2023-04-09T03:31:27;100509.59;;;7.55;60.84
79269;BME280;68714;48.586;7.772;2023-04-09T03:33:52;100513.94;;;7.57;60.58
79269;BME280;68714;48.586;7.772;2023-04-09T03:36:18;100508.66;;;7.59;60.96
79269;BME280;68714;48.586;7.772;2023-04-09T03:38:43;100516.50;;;7.60;60.85
79269;BME280;68714;48.586;7.772;2023-04-09T03:41:09;100517.31;;;7.62;60.68
79269;BME280;68714;48.586;7.772;2023-04-09T03:43:35;100511.25;;;7.60;60.73
79269;BME280;68714;48.586;7.772;2023-04-09T03:46:00;100517.34;;;7.61;60.58
79269;BME280;68714;48.586;7.772;2023-04-09T03:48:26;100512.97;;;7.63;60.72
79269;BME280;68714;48.586;7.772;2023-04-09T03:50:51;100513.78;;;7.65;60.62
79269;BME280;68714;48.586;7.772;2023-04-09T03:53:17;100512.94;;;7.64;60.52
79269;BME280;68714;48.586;7.772;2023-04-09T03:55:43;100516.41;;;7.65;60.42
79269;BME280;68714;48.586;7.772;2023-04-09T03:58:08;100505.03;;;7.64;60.99
79269;BME280;68714;48.586;7.772;2023-04-09T04:00:34;100504.16;;;7.64;60.87
79269;BME280;68714;48.586;7.772;2023-04-09T04:02:59;100505.97;;;7.62;60.33
79269;BME280;68714;48.586;7.772;2023-04-09T04:05:25;100509.53;;;7.58;60.73
79269;BME280;68714;48.586;7.772;2023-04-09T04:07:50;100508.69;;;7.56;60.73
79269;BME280;68714;48.586;7.772;2023-04-09T04:10:16;100505.28;;;7.52;60.25
79269;BME280;68714;48.586;7.772;2023-04-09T04:12:41;100512.28;;;7.50;60.65
79269;BME280;68714;48.586;7.772;2023-04-09T04:15:07;100517.56;;;7.48;61.04
79269;BME280;68714;48.586;7.772;2023-04-09T04:17:32;100514.91;;;7.50;60.59
79269;BME280;68714;48.586;7.772;2023-04-09T04:19:58;100514.09;;;7.48;60.70
79269;BME280;68714;48.586;7.772;2023-04-09T04:22:23;100515.03;;;7.44;60.41
79269;BME280;68714;48.586;7.772;2023-04-09T04:24:48;100514.28;;;7.37;60.39
79269;BME280;68714;48.586;7.772;2023-04-09T04:27:14;100521.34;;;7.35;60.53
79269;BME280;68714;48.586;7.772;2023-04-09T04:29:39;100519.56;;;7.36;60.96
79269;BME280;68714;48.586;7.772;2023-04-09T04:32:05;100516.06;;;7.35;61.04
79269;BME280;68714;48.586;7.772;2023-04-09T04:34:31;100523.06;;;7.35;60.87
79269;BME280;68714;48.586;7.772;2023-04-09T04:36:56;100528.28;;;7.38;61.27
79269;BME280;68714;48.586;7.772;2023-04-09T04:39:21;100522.09;;;7.40;60.85
79269;BME280;68714;48.586;7.772;2023-04-09T04:41:47;100524.72;;;7.40;60.89
79269;BME280;68714;48.586;7.772;2023-04-09T04:44:12;100521.22;;;7.41;60.95
79269;BME280;68714;48.586;7.772;2023-04-09T04:46:38;100524.69;;;7.42;60.94
79269;BME280;68714;48.586;7.772;2023-04-09T04:49:03;100534.34;;;7.41;61.52
79269;BME280;68714;48.586;7.772;2023-04-09T04:51:32;100541.41;;;7.38;61.56
79269;BME280;68714;48.586;7.772;2023-04-09T04:53:57;100540.56;;;7.36;61.37
79269;BME280;68714;48.586;7.772;2023-04-09T04:56:23;100539.75;;;7.32;61.58
79269;BME280;68714;48.586;7.772;2023-04-09T04:58:48;100537.22;;;7.27;61.28
79269;BME280;68714;48.586;7.772;2023-04-09T05:01:13;100536.38;;;7.24;61.94
79269;BME280;68714;48.586;7.772;2023-04-09T05:03:39;100535.53;;;7.23;61.63
79269;BME280;68714;48.586;7.772;2023-04-09T05:06:05;100540.81;;;7.22;61.88
79269;BME280;68714;48.586;7.772;2023-04-09T05:08:31;100547.88;;;7.17;61.79
79269;BME280;68714;48.586;7.772;2023-04-09T05:10:57;100542.59;;;7.17;61.77
79269;BME280;68714;48.586;7.772;2023-04-09T05:13:22;100547.06;;;7.13;61.82
79269;BME280;68714;48.586;7.772;2023-04-09T05:15:48;100547.97;;;7.09;62.18
79269;BME280;68714;48.586;7.772;2023-04-09T05:18:13;100544.47;;;7.10;61.61
79269;BME280;68714;48.586;7.772;2023-04-09T05:20:39;100545.38;;;7.07;62.22
79269;BME280;68714;48.586;7.772;2023-04-09T05:23:05;100552.41;;;7.07;62.06
79269;BME280;68714;48.586;7.772;2023-04-09T05:25:34;100549.81;;;7.04;62.11
79269;BME280;68714;48.586;7.772;2023-04-09T05:27:59;100551.53;;;7.06;62.11
79269;BME280;68714;48.586;7.772;2023-04-09T05:30:25;100554.19;;;7.05;62.11
79269;BME280;68714;48.586;7.772;2023-04-09T05:32:50;100552.53;;;6.99;61.89
79269;BME280;68714;48.586;7.772;2023-04-09T05:35:16;100552.56;;;6.96;62.35
79269;BME280;68714;48.586;7.772;2023-04-09T05:37:41;100551.75;;;6.92;62.14
79269;BME280;68714;48.586;7.772;2023-04-09T05:40:07;100550.88;;;6.92;62.59
79269;BME280;68714;48.586;7.772;2023-04-09T05:42:34;100547.41;;;6.90;62.79
79269;BME280;68714;48.586;7.772;2023-04-09T05:45:00;100554.34;;;6.94;62.60
79269;BME280;68714;48.586;7.772;2023-04-09T05:47:25;100551.72;;;6.95;62.54
79269;BME280;68714;48.586;7.772;2023-04-09T05:49:51;100554.25;;;7.00;62.51
79269;BME280;68714;48.586;7.772;2023-04-09T05:52:16;100555.06;;;7.04;62.40
79269;BME280;68714;48.586;7.772;2023-04-09T05:54:42;100560.25;;;7.08;62.45
79269;BME280;68714;48.586;7.772;2023-04-09T05:57:07;100555.72;;;7.18;62.45
79269;BME280;68714;48.586;7.772;2023-04-09T05:59:33;100550.38;;;7.26;61.95
79269;BME280;68714;48.586;7.772;2023-04-09T06:01:58;100550.31;;;7.29;62.15
79269;BME280;68714;48.586;7.772;2023-04-09T06:04:23;100549.34;;;7.33;61.95
79269;BME280;68714;48.586;7.772;2023-04-09T06:06:50;100557.09;;;7.41;62.02
79269;BME280;68714;48.586;7.772;2023-04-09T06:09:16;100557.00;;;7.47;61.63
79269;BME280;68714;48.586;7.772;2023-04-09T06:11:41;100560.47;;;7.50;61.89
79269;BME280;68714;48.586;7.772;2023-04-09T06:14:09;100550.72;;;7.56;61.74
79269;BME280;68714;48.586;7.772;2023-04-09T06:16:36;100551.56;;;7.58;61.48
79269;BME280;68714;48.586;7.772;2023-04-09T06:19:02;100556.78;;;7.59;61.58
79269;BME280;68714;48.586;7.772;2023-04-09T06:21:28;100554.06;;;7.64;61.44
79269;BME280;68714;48.586;7.772;2023-04-09T06:23:55;100557.50;;;7.69;61.97
79269;BME280;68714;48.586;7.772;2023-04-09T06:26:20;100566.13;;;7.76;61.87
79269;BME280;68714;48.586;7.772;2023-04-09T06:28:46;100563.38;;;7.82;61.63
79269;BME280;68714;48.586;7.772;2023-04-09T06:31:12;100563.31;;;7.86;61.90
79269;BME280;68714;48.586;7.772;2023-04-09T06:33:39;100556.25;;;7.89;61.51
79269;BME280;68714;48.586;7.772;2023-04-09T06:36:05;100566.69;;;7.95;61.75
79269;BME280;68714;48.586;7.772;2023-04-09T06:38:31;100560.38;;;8.02;61.75
79269;BME280;68714;48.586;7.772;2023-04-09T06:40:56;100557.66;;;8.07;61.96
79269;BME280;68714;48.586;7.772;2023-04-09T06:43:22;100565.44;;;8.13;61.77
79269;BME280;68714;48.586;7.772;2023-04-09T06:45:47;100572.38;;;8.17;61.58
79269;BME280;68714;48.586;7.772;2023-04-09T06:48:13;100571.44;;;8.21;61.59
79269;BME280;68714;48.586;7.772;2023-04-09T06:50:38;100581.78;;;8.29;61.58
79269;BME280;68714;48.586;7.772;2023-04-09T06:53:05;100585.94;;;8.39;61.49
79269;BME280;68714;48.586;7.772;2023-04-09T06:55:32;100585.81;;;8.47;61.77
79269;BME280;68714;48.586;7.772;2023-04-09T06:57:57;100584.78;;;8.55;61.54
79269;BME280;68714;48.586;7.772;2023-04-09T07:00:23;100584.72;;;8.59;61.11
79269;BME280;68714;48.586;7.772;2023-04-09T07:02:48;100576.78;;;8.60;61.37
79269;BME280;68714;48.586;7.772;2023-04-09T07:05:14;100581.91;;;8.66;61.22
79269;BME280;68714;48.586;7.772;2023-04-09T07:07:41;100582.69;;;8.71;61.06
79269;BME280;68714;48.586;7.772;2023-04-09T07:10:07;100578.16;;;8.78;61.00
79269;BME280;68714;48.586;7.772;2023-04-09T07:12:33;100576.22;;;8.85;61.05
79269;BME280;68714;48.586;7.772;2023-04-09T07:15:06;100578.72;;;8.91;60.57
79269;BME280;68714;48.586;7.772;2023-04-09T07:17:32;100583.00;;;8.97;60.53
79269;BME280;68714;48.586;7.772;2023-04-09T07:19:58;100579.44;;;8.99;60.25
79269;BME280;68714;48.586;7.772;2023-04-09T07:22:24;100582.78;;;9.06;60.17
79269;BME280;68714;48.586;7.772;2023-04-09T07:24:51;100588.69;;;9.16;60.20
79269;BME280;68714;48.586;7.772;2023-04-09T07:27:26;100584.13;;;9.24;60.04
79269;BME280;68714;48.586;7.772;2023-04-09T07:29:56;100589.91;;;9.38;59.99
79269;BME280;68714;48.586;7.772;2023-04-09T07:32:23;100587.91;;;9.50;59.73
79269;BME280;68714;48.586;7.772;2023-04-09T07:34:53;100588.59;;;9.56;59.38
79269;BME280;68714;48.586;7.772;2023-04-09T07:37:20;100591.84;;;9.66;59.44
79269;BME280;68714;48.586;7.772;2023-04-09T07:39:46;100593.69;;;9.64;59.11
79269;BME280;68714;48.586;7.772;2023-04-09T07:42:12;100599.66;;;9.71;59.06
79269;BME280;68714;48.586;7.772;2023-04-09T07:44:38;100594.22;;;9.77;58.86
79269;BME280;68714;48.586;7.772;2023-04-09T07:47:04;100603.75;;;9.82;58.75
79269;BME280;68714;48.586;7.772;2023-04-09T07:49:30;100600.19;;;9.85;58.66
79269;BME280;68714;48.586;7.772;2023-04-09T07:51:56;100606.22;;;9.89;58.40
79269;BME280;68714;48.586;7.772;2023-04-09T07:54:23;100599.97;;;9.93;58.04
79269;BME280;68714;48.586;7.772;2023-04-09T07:56:49;100597.25;;;9.96;58.36
79269;BME280;68714;48.586;7.772;2023-04-09T07:59:15;100604.34;;;9.94;57.87
79269;BME280;68714;48.586;7.772;2023-04-09T08:01:42;100605.84;;;10.03;58.34
79269;BME280;68714;48.586;7.772;2023-04-09T08:04:09;100594.97;;;10.15;57.95
79269;BME280;68714;48.586;7.772;2023-04-09T08:06:37;100600.91;;;10.23;57.96
79269;BME280;68714;48.586;7.772;2023-04-09T08:09:03;100595.44;;;10.31;57.71
79269;BME280;68714;48.586;7.772;2023-04-09T08:11:28;100600.44;;;10.42;57.90
79269;BME280;68714;48.586;7.772;2023-04-09T08:13:54;100608.84;;;10.55;57.45
79269;BME280;68714;48.586;7.772;2023-04-09T08:16:20;100602.31;;;10.68;57.37
79269;BME280;68714;48.586;7.772;2023-04-09T08:18:47;100607.19;;;10.82;57.41
79269;BME280;68714;48.586;7.772;2023-04-09T08:21:13;100603.31;;;10.94;56.93
79269;BME280;68714;48.586;7.772;2023-04-09T08:23:39;100609.31;;;10.99;56.56
79269;BME280;68714;48.586;7.772;2023-04-09T08:26:04;100605.72;;;11.01;56.54
79269;BME280;68714;48.586;7.772;2023-04-09T08:28:30;100609.16;;;11.03;56.31
79269;BME280;68714;48.586;7.772;2023-04-09T08:30:55;100608.88;;;11.13;56.50
79269;BME280;68714;48.586;7.772;2023-04-09T08:33:21;100608.63;;;11.20;56.59
79269;BME280;68714;48.586;7.772;2023-04-09T08:35:46;100600.31;;;11.33;56.16
79269;BME280;68714;48.586;7.772;2023-04-09T08:38:12;100599.94;;;11.43;56.21
79269;BME280;68714;48.586;7.772;2023-04-09T08:40:37;100602.13;;;11.57;55.85
79269;BME280;68714;48.586;7.772;2023-04-09T08:43:06;100599.97;;;11.70;55.52
79269;BME280;68714;48.586;7.772;2023-04-09T08:45:33;100597.59;;;11.88;55.61
79269;BME280;68714;48.586;7.772;2023-04-09T08:47:59;100600.41;;;12.10;54.84
79269;BME280;68714;48.586;7.772;2023-04-09T08:50:29;100598.84;;;12.28;54.90
79269;BME280;68714;48.586;7.772;2023-04-09T08:52:57;100593.47;;;12.55;54.52
79269;BME280;68714;48.586;7.772;2023-04-09T08:55:23;100588.03;;;12.81;54.14
79269;BME280;68714;48.586;7.772;2023-04-09T08:57:48;100591.59;;;13.04;54.29
79269;BME280;68714;48.586;7.772;2023-04-09T09:05:42;100597.94;;;13.44;52.50
79269;BME280;68714;48.586;7.772;2023-04-09T09:08:12;100599.56;;;13.69;52.90
79269;BME280;68714;48.586;7.772;2023-04-09T09:13:24;100601.06;;;13.97;51.81
79269;BME280;68714;48.586;7.772;2023-04-09T09:16:10;100594.03;;;13.96;51.24
79269;BME280;68714;48.586;7.772;2023-04-09T09:18:38;100588.28;;;13.86;51.11
79269;BME280;68714;48.586;7.772;2023-04-09T09:21:14;100602.72;;;13.79;50.99
79269;BME280;68714;48.586;7.772;2023-04-09T09:23:42;100595.34;;;13.85;51.31
79269;BME280;68714;48.586;7.772;2023-04-09T09:26:15;100591.00;;;13.84;50.52
79269;BME280;68714;48.586;7.772;2023-04-09T09:28:43;100588.28;;;13.86;50.99
79269;BME280;68714;48.586;7.772;2023-04-09T09:31:10;100587.38;;;13.85;50.64
79269;BME280;68714;48.586;7.772;2023-04-09T09:33:36;100582.22;;;13.82;50.22
79269;BME280;68714;48.586;7.772;2023-04-09T09:36:02;100582.41;;;13.78;50.02
79269;BME280;68714;48.586;7.772;2023-04-09T09:38:34;100581.88;;;13.69;49.70
79269;BME280;68714;48.586;7.772;2023-04-09T09:41:18;100571.75;;;13.59;49.66
79269;BME280;68714;48.586;7.772;2023-04-09T09:43:44;100570.91;;;13.56;49.59
79269;BME280;68714;48.586;7.772;2023-04-09T09:46:10;100560.25;;;13.58;49.11
79269;BME280;68714;48.586;7.772;2023-04-09T09:48:35;100560.25;;;13.58;48.60
79269;BME280;68714;48.586;7.772;2023-04-09T09:51:02;100557.28;;;13.66;48.36
79269;BME280;68714;48.586;7.772;2023-04-09T09:53:31;100566.69;;;13.73;47.28
79269;BME280;68714;48.586;7.772;2023-04-09T09:55:58;100561.72;;;13.65;47.34
79269;BME280;68714;48.586;7.772;2023-04-09T09:58:31;100563.78;;;13.59;46.42
79269;BME280;68714;48.586;7.772;2023-04-09T10:01:01;100568.97;;;13.62;47.27
79269;BME280;68714;48.586;7.772;2023-04-09T10:03:28;100563.53;;;13.65;46.86
79269;BME280;68714;48.586;7.772;2023-04-09T10:05:57;100561.97;;;13.59;46.26
79269;BME280;68714;48.586;7.772;2023-04-09T10:08:23;100560.63;;;13.49;45.88
79269;BME280;68714;48.586;7.772;2023-04-09T10:10:51;100560.16;;;13.39;46.19
79269;BME280;68714;48.586;7.772;2023-04-09T10:13:25;100555.91;;;13.35;45.45
79269;BME280;68714;48.586;7.772;2023-04-09T10:15:55;100550.78;;;13.30;45.93
79269;BME280;68714;48.586;7.772;2023-04-09T10:18:21;100553.06;;;13.17;46.07
79269;BME280;68714;48.586;7.772;2023-04-09T10:20:58;100555.09;;;13.11;45.39
79269;BME280;68714;48.586;7.772;2023-04-09T10:23:37;100558.38;;;13.17;44.36
79269;BME280;68714;48.586;7.772;2023-04-09T10:26:04;100555.22;;;13.30;46.17
79269;BME280;68714;48.586;7.772;2023-04-09T10:28:30;100555.84;;;13.36;45.43
79269;BME280;68714;48.586;7.772;2023-04-09T10:30:57;100554.94;;;13.37;45.84
79269;BME280;68714;48.586;7.772;2023-04-09T10:33:24;100554.59;;;13.45;45.66
79269;BME280;68714;48.586;7.772;2023-04-09T10:35:51;100549.50;;;13.61;45.24
79269;BME280;68714;48.586;7.772;2023-04-09T10:38:32;100546.66;;;13.66;43.73
79269;BME280;68714;48.586;7.772;2023-04-09T10:41:06;100547.41;;;13.69;43.87
79269;BME280;68714;48.586;7.772;2023-04-09T10:43:33;100547.06;;;13.77;44.79
79269;BME280;68714;48.586;7.772;2023-04-09T10:46:00;100543.34;;;14.02;44.99
79269;BME280;68714;48.586;7.772;2023-04-09T10:48:26;100544.81;;;14.28;44.70
79269;BME280;68714;48.586;7.772;2023-04-09T10:50:51;100543.34;;;14.41;44.54
79269;BME280;68714;48.586;7.772;2023-04-09T10:53:21;100537.31;;;14.57;43.09
79269;BME280;68714;48.586;7.772;2023-04-09T10:55:49;100542.97;;;14.49;43.25
79269;BME280;68714;48.586;7.772;2023-04-09T10:58:18;100540.59;;;14.43;43.68
79269;BME280;68714;48.586;7.772;2023-04-09T11:00:45;100536.69;;;14.52;43.88
79269;BME280;68714;48.586;7.772;2023-04-09T11:05:47;100537.25;;;14.77;43.48
79269;BME280;68714;48.586;7.772;2023-04-09T11:08:15;100535.19;;;14.84;42.30
79269;BME280;68714;48.586;7.772;2023-04-09T11:10:42;100532.00;;;14.76;42.14
79269;BME280;68714;48.586;7.772;2023-04-09T11:13:16;100530.72;;;14.85;42.08
79269;BME280;68714;48.586;7.772;2023-04-09T11:15:43;100532.25;;;15.08;42.03
79269;BME280;68714;48.586;7.772;2023-04-09T11:18:14;100528.66;;;15.09;41.37
79269;BME280;68714;48.586;7.772;2023-04-09T11:20:40;100525.50;;;15.01;41.33
79269;BME280;68714;48.586;7.772;2023-04-09T11:23:05;100517.91;;;14.93;41.05
79269;BME280;68714;48.586;7.772;2023-04-09T11:25:32;100524.63;;;14.83;41.04
79269;BME280;68714;48.586;7.772;2023-04-09T11:28:01;100520.91;;;14.68;41.18
79269;BME280;68714;48.586;7.772;2023-04-09T11:30:27;100504.09;;;14.67;41.38
79269;BME280;68714;48.586;7.772;2023-04-09T11:32:53;100519.16;;;14.67;40.56
79269;BME280;68714;48.586;7.772;2023-04-09T11:35:20;100513.75;;;14.49;40.42
79269;BME280;68714;48.586;7.772;2023-04-09T11:37:47;100516.72;;;14.43;41.26
79269;BME280;68714;48.586;7.772;2023-04-09T11:40:24;100520.50;;;14.37;39.43
79269;BME280;68714;48.586;7.772;2023-04-09T11:42:53;100512.47;;;14.39;41.24
79269;BME280;68714;48.586;7.772;2023-04-09T11:45:23;100513.91;;;14.46;41.07
79269;BME280;68714;48.586;7.772;2023-04-09T11:47:49;100502.94;;;14.54;41.10
79269;BME280;68714;48.586;7.772;2023-04-09T11:50:15;100512.00;;;14.69;41.34
79269;BME280;68714;48.586;7.772;2023-04-09T11:52:43;100517.75;;;14.96;41.34
79269;BME280;68714;48.586;7.772;2023-04-09T11:55:09;100510.16;;;15.25;41.45
79269;BME280;68714;48.586;7.772;2023-04-09T11:57:43;100502.56;;;15.52;41.15
79269;BME280;68714;48.586;7.772;2023-04-09T12:00:13;100502.09;;;15.79;41.11
79269;BME280;68714;48.586;7.772;2023-04-09T12:02:44;100508.09;;;16.00;40.62
79269;BME280;68714;48.586;7.772;2023-04-09T12:05:31;100508.16;;;16.16;39.10
79269;BME280;68714;48.586;7.772;2023-04-09T12:08:02;100500.41;;;16.27;40.06
79269;BME280;68714;48.586;7.772;2023-04-09T12:10:35;100507.31;;;16.47;40.12
79269;BME280;68714;48.586;7.772;2023-04-09T12:13:02;100500.34;;;16.76;40.37
79269;BME280;68714;48.586;7.772;2023-04-09T12:15:34;100496.22;;;17.03;39.43
79269;BME280;68714;48.586;7.772;2023-04-09T12:18:01;100489.88;;;17.36;39.41
79269;BME280;68714;48.586;7.772;2023-04-09T12:20:28;100486.66;;;17.59;39.13
79269;BME280;68714;48.586;7.772;2023-04-09T12:22:54;100488.81;;;17.83;38.86
79269;BME280;68714;48.586;7.772;2023-04-09T12:25:20;100493.03;;;17.87;38.43
79269;BME280;68714;48.586;7.772;2023-04-09T12:27:45;100486.97;;;17.99;38.67
79269;BME280;68714;48.586;7.772;2023-04-09T12:30:11;100479.28;;;18.22;38.45
79269;BME280;68714;48.586;7.772;2023-04-09T12:32:36;100483.34;;;18.57;37.91
79269;BME280;68714;48.586;7.772;2023-04-09T12:35:04;100483.00;;;18.76;37.45
79269;BME280;68714;48.586;7.772;2023-04-09T12:37:30;100477.09;;;18.70;36.08
79269;BME280;68714;48.586;7.772;2023-04-09T12:39:55;100466.72;;;18.24;35.75
79269;BME280;68714;48.586;7.772;2023-04-09T12:42:20;100479.41;;;17.92;36.33
79269;BME280;68714;48.586;7.772;2023-04-09T12:44:46;100472.28;;;17.62;36.10
79269;BME280;68714;48.586;7.772;2023-04-09T12:47:11;100468.91;;;17.29;36.37
79269;BME280;68714;48.586;7.772;2023-04-09T12:49:37;100479.72;;;16.96;36.27
79269;BME280;68714;48.586;7.772;2023-04-09T12:52:03;100472.66;;;16.79;35.69
79269;BME280;68714;48.586;7.772;2023-04-09T12:54:29;100467.78;;;16.71;35.93
79269;BME280;68714;48.586;7.772;2023-04-09T12:56:55;100460.97;;;16.82;35.94
79269;BME280;68714;48.586;7.772;2023-04-09T12:59:20;100458.78;;;17.04;35.62
79269;BME280;68714;48.586;7.772;2023-04-09T13:01:46;100451.72;;;17.19;35.10
79269;BME280;68714;48.586;7.772;2023-04-09T13:04:11;100454.25;;;17.37;35.32
79269;BME280;68714;48.586;7.772;2023-04-09T13:06:36;100456.56;;;17.57;35.42
79269;BME280;68714;48.586;7.772;2023-04-09T13:09:02;100459.50;;;17.67;35.29